Flinterbothnia — PBLG — position and weather

sailwx.info

Track history (hours):
 
Tides and Currents Weather Stations Pressure Air Temp Water Temp Dewpoint Dewpoint Depression Visibility Wind Speed Wind Dir Waves Ship Positions

Flinterbothnia

Last reported at 2014-Sep-19 23:27 UTC. Time now 2014-Sep-21 22:15 UTC.
Position N 57°49' E 017°31'.

Length 82 m; draft 5.4 m.

Type: Cargo ship. MMSI: 244741000.

Date/timePositionNaut miles runAvg speedWind from/ knotsBaromVisibWave heightAir tempDewpointWater temp
2014-Sep-19 23:27N 57°49' E 017°31'7 7.8
2014-Sep-19 22:32N 57°42' E 017°28'8 8.0
2014-Sep-19 21:33N 57°34' E 017°26'8 7.9
2014-Sep-19 20:33N 57°26' E 017°23'8 8.0
2014-Sep-19 19:33N 57°19' E 017°19'8 7.8
2014-Sep-19 18:33N 57°11' E 017°15'8 8.1
2014-Sep-19 17:34N 57°03' E 017°12'9 8.4
2014-Sep-19 16:33N 56°55' E 017°09'9 8.4
2014-Sep-19 15:29N 56°46' E 017°05'32 8.2
2014-Sep-19 11:31N 56°15' E 016°54'17 7.8
2014-Sep-19 09:19N 56°00' E 016°36'7 8.6
2014-Sep-19 08:33N 55°57' E 016°26'8 8.5
2014-Sep-19 07:33N 55°53' E 016°13'8 8.4
2014-Sep-19 06:33N 55°49' E 015°60'9 8.6
2014-Sep-19 05:33N 55°45' E 015°46'9 9.1
2014-Sep-19 04:33N 55°40' E 015°32'9 9.0
2014-Sep-19 03:33N 55°36' E 015°19'9 9.0
2014-Sep-19 02:33N 55°31' E 015°05'9 9.0
2014-Sep-19 01:33N 55°27' E 014°51'9 9.0
2014-Sep-19 00:33N 55°22' E 014°38'9 8.6
2014-Sep-18 23:33N 55°15' E 014°28'8 8.5
2014-Sep-18 22:33N 55°11' E 014°15'9 8.9
2014-Sep-18 21:33N 55°11' E 013°60'9 8.9
2014-Sep-18 20:33N 55°12' E 013°44'9 8.6
2014-Sep-18 19:33N 55°13' E 013°29'9 8.6
2014-Sep-18 18:33N 55°14' E 013°14'9 8.6
2014-Sep-18 17:33N 55°15' E 012°59'8 8.5
2014-Sep-18 16:33N 55°16' E 012°45'7 6.9
2014-Sep-18 15:33N 55°22' E 012°39'9 8.6
2014-Sep-18 14:33N 55°31' E 012°41'9 8.6
2014-Sep-18 13:33N 55°40' E 012°41'9 9.4
2014-Sep-18 12:33N 55°49' E 012°40'9 9.4
2014-Sep-18 11:33N 55°58' E 012°38'8 7.7
2014-Sep-18 10:34N 56°06' E 012°34'8 8.4
2014-Sep-18 09:33N 56°12' E 012°24'9 8.6
2014-Sep-18 08:33N 56°19' E 012°15'9 8.9
2014-Sep-18 07:33N 56°26' E 012°05'8 8.5
2014-Sep-18 06:33N 56°33' E 011°56'9 9.0
2014-Sep-18 05:34N 56°42' E 011°53'10 9.6
2014-Sep-18 04:33N 56°51' E 011°47'1010.2
2014-Sep-18 03:33N 57°00' E 011°41'1010.0
2014-Sep-18 02:33N 57°10' E 011°34'10 9.8
2014-Sep-18 01:33N 57°19' E 011°28'10 9.8
2014-Sep-18 00:33N 57°28' E 011°20'10 9.7
2014-Sep-17 23:33N 57°35' E 011°07'10 9.9
2014-Sep-17 22:33N 57°42' E 010°55'10 9.3
2014-Sep-17 21:28N 57°47' E 010°39'8 8.4
2014-Sep-17 20:33N 57°48' E 010°24'420 8.4
2014-Sep-15 18:33N 58°42' W 002°47'7 7.4
2014-Sep-15 17:33N 58°43' W 003°01'10 9.2
2014-Sep-15 16:30N 58°42' W 003°20'1010.9
2014-Sep-15 15:33N 58°42' W 003°40'1111.1
2014-Sep-15 14:33N 58°42' W 004°01'5110.2
2014-Sep-15 09:33N 58°23' W 005°32'1110.6
2014-Sep-15 08:33N 58°14' W 005°44'1010.3
2014-Sep-15 07:33N 58°06' W 005°56'25110.0
2014-Sep-14 06:33N 54°36' W 010°02'1110.6
2014-Sep-14 05:33N 54°27' W 010°12'1110.7
2014-Sep-14 04:33N 54°17' W 010°19'1110.6
2014-Sep-14 03:33N 54°07' W 010°25'1110.9
2014-Sep-14 02:33N 53°56' W 010°29'1110.6
2014-Sep-14 01:33N 53°46' W 010°30'39 9.7
2014-Sep-13 21:33N 53°12' W 009°58'1110.7
2014-Sep-13 20:33N 53°11' W 009°40'1110.5
2014-Sep-13 19:33N 53°12' W 009°22'7 0.2
2014-Sep-12 04:28N 53°13' W 009°10'8 8.4
2014-Sep-12 03:34N 53°12' W 009°23'8 8.4
2014-Sep-12 02:33N 53°12' W 009°37'9 8.5
2014-Sep-12 01:33N 53°12' W 009°51'8 8.5
2014-Sep-12 00:33N 53°12' W 010°05'8 8.3
2014-Sep-11 23:33N 53°13' W 010°19'8 7.8
2014-Sep-11 22:33N 53°20' W 010°26'7 7.1
2014-Sep-11 21:33N 53°26' W 010°30'1313.1
2014-Sep-11 20:33N 53°40' W 010°29'7 6.7
2014-Sep-11 19:33N 53°46' W 010°26'1716.8
2014-Sep-11 18:33N 54°03' W 010°24'4 3.8
2014-Sep-11 17:32N 54°07' W 010°25'4 4.1
2014-Sep-11 16:33N 54°11' W 010°24'9 8.8
2014-Sep-11 15:33N 54°19' W 010°19'7 7.1
2014-Sep-11 14:33N 54°24' W 010°09'10 9.8
2014-Sep-11 13:33N 54°30' W 009°57'11010.5
2014-Sep-11 03:03N 55°28' W 007°13'713.3
2014-Sep-11 02:32N 55°28' W 007°01'1313.7
2014-Sep-11 01:33N 55°27' W 006°37'1312.7
2014-Sep-11 00:33N 55°25' W 006°15'1010.2
2014-Sep-10 23:33N 55°21' W 005°59'8 8.4
2014-Sep-10 22:33N 55°14' W 005°51'8 8.0
2014-Sep-10 21:33N 55°07' W 005°45'9 8.3
2014-Sep-10 20:32N 54°59' W 005°39'8 8.5
2014-Sep-10 19:33N 54°51' W 005°33'9 9.5
2014-Sep-10 18:33N 54°43' W 005°25'1110.9
2014-Sep-10 17:33N 54°32' W 005°22'1111.5
2014-Sep-10 16:33N 54°21' W 005°23'1512.0
2014-Sep-10 15:17N 54°09' W 005°40'1211.6
2014-Sep-10 14:13N 54°01' W 005°57'7 0.5
2014-Sep-09 23:32N 54°02' W 006°08'  
Track history (hours):
 
Tides and Currents Weather Stations Pressure Air Temp Water Temp Dewpoint Dewpoint Depression Visibility Wind Speed Wind Dir Waves Ship Positions

Flinterbothnia

Last reported at 2014-Sep-19 23:27 UTC. Time now 2014-Sep-21 22:15 UTC.
Position N 57°49' E 017°31'.

Length 82 m; draft 5.4 m.

Type: Cargo ship. MMSI: 244741000.

Date/timePositionNaut miles runAvg speedWind from/ knotsBaromVisibWave heightAir tempDewpointWater temp
2014-Sep-19 23:27N 57°49' E 017°31'7 7.8
2014-Sep-19 22:32N 57°42' E 017°28'8 8.0
2014-Sep-19 21:33N 57°34' E 017°26'8 7.9
2014-Sep-19 20:33N 57°26' E 017°23'8 8.0
2014-Sep-19 19:33N 57°19' E 017°19'8 7.8
2014-Sep-19 18:33N 57°11' E 017°15'8 8.1
2014-Sep-19 17:34N 57°03' E 017°12'9 8.4
2014-Sep-19 16:33N 56°55' E 017°09'9 8.4
2014-Sep-19 15:29N 56°46' E 017°05'32 8.2
2014-Sep-19 11:31N 56°15' E 016°54'17 7.8
2014-Sep-19 09:19N 56°00' E 016°36'7 8.6
2014-Sep-19 08:33N 55°57' E 016°26'8 8.5
2014-Sep-19 07:33N 55°53' E 016°13'8 8.4
2014-Sep-19 06:33N 55°49' E 015°60'9 8.6
2014-Sep-19 05:33N 55°45' E 015°46'9 9.1
2014-Sep-19 04:33N 55°40' E 015°32'9 9.0
2014-Sep-19 03:33N 55°36' E 015°19'9 9.0
2014-Sep-19 02:33N 55°31' E 015°05'9 9.0
2014-Sep-19 01:33N 55°27' E 014°51'9 9.0
2014-Sep-19 00:33N 55°22' E 014°38'9 8.6
2014-Sep-18 23:33N 55°15' E 014°28'8 8.5
2014-Sep-18 22:33N 55°11' E 014°15'9 8.9
2014-Sep-18 21:33N 55°11' E 013°60'9 8.9
2014-Sep-18 20:33N 55°12' E 013°44'9 8.6
2014-Sep-18 19:33N 55°13' E 013°29'9 8.6
2014-Sep-18 18:33N 55°14' E 013°14'9 8.6
2014-Sep-18 17:33N 55°15' E 012°59'8 8.5
2014-Sep-18 16:33N 55°16' E 012°45'7 6.9
2014-Sep-18 15:33N 55°22' E 012°39'9 8.6
2014-Sep-18 14:33N 55°31' E 012°41'9 8.6
2014-Sep-18 13:33N 55°40' E 012°41'9 9.4
2014-Sep-18 12:33N 55°49' E 012°40'9 9.4
2014-Sep-18 11:33N 55°58' E 012°38'8 7.7
2014-Sep-18 10:34N 56°06' E 012°34'8 8.4
2014-Sep-18 09:33N 56°12' E 012°24'9 8.6
2014-Sep-18 08:33N 56°19' E 012°15'9 8.9
2014-Sep-18 07:33N 56°26' E 012°05'8 8.5
2014-Sep-18 06:33N 56°33' E 011°56'9 9.0
2014-Sep-18 05:34N 56°42' E 011°53'10 9.6
2014-Sep-18 04:33N 56°51' E 011°47'1010.2
2014-Sep-18 03:33N 57°00' E 011°41'1010.0
2014-Sep-18 02:33N 57°10' E 011°34'10 9.8
2014-Sep-18 01:33N 57°19' E 011°28'10 9.8
2014-Sep-18 00:33N 57°28' E 011°20'10 9.7
2014-Sep-17 23:33N 57°35' E 011°07'10 9.9
2014-Sep-17 22:33N 57°42' E 010°55'10 9.3
2014-Sep-17 21:28N 57°47' E 010°39'8 8.4
2014-Sep-17 20:33N 57°48' E 010°24'420 8.4
2014-Sep-15 18:33N 58°42' W 002°47'7 7.4
2014-Sep-15 17:33N 58°43' W 003°01'10 9.2
2014-Sep-15 16:30N 58°42' W 003°20'1010.9
2014-Sep-15 15:33N 58°42' W 003°40'1111.1
2014-Sep-15 14:33N 58°42' W 004°01'5110.2
2014-Sep-15 09:33N 58°23' W 005°32'1110.6
2014-Sep-15 08:33N 58°14' W 005°44'1010.3
2014-Sep-15 07:33N 58°06' W 005°56'25110.0
2014-Sep-14 06:33N 54°36' W 010°02'1110.6
2014-Sep-14 05:33N 54°27' W 010°12'1110.7
2014-Sep-14 04:33N 54°17' W 010°19'1110.6
2014-Sep-14 03:33N 54°07' W 010°25'1110.9
2014-Sep-14 02:33N 53°56' W 010°29'1110.6
2014-Sep-14 01:33N 53°46' W 010°30'39 9.7
2014-Sep-13 21:33N 53°12' W 009°58'1110.7
2014-Sep-13 20:33N 53°11' W 009°40'1110.5
2014-Sep-13 19:33N 53°12' W 009°22'7 0.2
2014-Sep-12 04:28N 53°13' W 009°10'8 8.4
2014-Sep-12 03:34N 53°12' W 009°23'8 8.4
2014-Sep-12 02:33N 53°12' W 009°37'9 8.5
2014-Sep-12 01:33N 53°12' W 009°51'8 8.5
2014-Sep-12 00:33N 53°12' W 010°05'8 8.3
2014-Sep-11 23:33N 53°13' W 010°19'8 7.8
2014-Sep-11 22:33N 53°20' W 010°26'7 7.1
2014-Sep-11 21:33N 53°26' W 010°30'1313.1
2014-Sep-11 20:33N 53°40' W 010°29'7 6.7
2014-Sep-11 19:33N 53°46' W 010°26'1716.8
2014-Sep-11 18:33N 54°03' W 010°24'4 3.8
2014-Sep-11 17:32N 54°07' W 010°25'4 4.1
2014-Sep-11 16:33N 54°11' W 010°24'9 8.8
2014-Sep-11 15:33N 54°19' W 010°19'7 7.1
2014-Sep-11 14:33N 54°24' W 010°09'10 9.8
2014-Sep-11 13:33N 54°30' W 009°57'11010.5
2014-Sep-11 03:03N 55°28' W 007°13'713.3
2014-Sep-11 02:32N 55°28' W 007°01'1313.7
2014-Sep-11 01:33N 55°27' W 006°37'1312.7
2014-Sep-11 00:33N 55°25' W 006°15'1010.2
2014-Sep-10 23:33N 55°21' W 005°59'8 8.4
2014-Sep-10 22:33N 55°14' W 005°51'8 8.0
2014-Sep-10 21:33N 55°07' W 005°45'9 8.3
2014-Sep-10 20:32N 54°59' W 005°39'8 8.5
2014-Sep-10 19:33N 54°51' W 005°33'9 9.5
2014-Sep-10 18:33N 54°43' W 005°25'1110.9
2014-Sep-10 17:33N 54°32' W 005°22'1111.5
2014-Sep-10 16:33N 54°21' W 005°23'1512.0
2014-Sep-10 15:17N 54°09' W 005°40'1211.6
2014-Sep-10 14:13N 54°01' W 005°57'7 0.5
2014-Sep-09 23:32N 54°02' W 006°08'  

Dump ship's entire track history